Time;durP1;ratioP1;P1;durP2;ratioP2;P2;SDS_P1;SDS_P2;PMS_P1;PMS_P2;Temp;Humidity;BMP_temperature;BMP_pressure;BME280_temperature;BME280_humidity;BME280_pressure;Samples;Min_cycle;Max_cycle;Signal;HPM_P1;HPM_P2
2020/12/08 00:00:09;;;;;;;26.67;16.50;;;;;;;2.09;74.95;94201.75;5093755;28;20059;-52
2020/12/08 00:02:36;;;;;;;23.27;14.73;;;;;;;1.93;74.62;94190.06;5094510;28;20400;-47
2020/12/08 00:05:04;;;;;;;26.20;16.30;;;;;;;2.10;73.90;94203.31;5094794;28;20052;-48
2020/12/08 00:07:30;;;;;;;28.83;16.52;;;;;;;1.77;74.69;94195.13;5093846;28;20044;-51
2020/12/08 00:09:57;;;;;;;29.60;17.67;;;;;;;1.63;76.14;94203.31;5094488;28;20127;-51
2020/12/08 00:12:26;;;;;;;28.75;17.23;;;;;;;1.74;75.77;94189.66;5094592;28;20537;-46
2020/12/08 00:14:55;;;;;;;29.95;16.92;;;;;;;1.80;74.69;94186.50;5094602;28;20086;-49
2020/12/08 00:17:21;;;;;;;27.42;16.20;;;;;;;1.89;74.61;94215.03;5093964;28;20097;-45
2020/12/08 00:19:48;;;;;;;29.17;17.60;;;;;;;1.79;74.92;94197.50;5095075;28;20217;-48
2020/12/08 00:22:15;;;;;;;30.92;17.40;;;;;;;1.87;74.37;94183.34;5094814;28;20458;-47
2020/12/08 00:24:42;;;;;;;31.15;18.63;;;;;;;1.79;75.01;94206.25;5094377;28;20064;-49
2020/12/08 00:27:09;;;;;;;32.10;17.27;;;;;;;1.50;76.34;94201.63;5093242;28;20044;-49
2020/12/08 00:29:37;;;;;;;30.15;18.02;;;;;;;1.62;76.68;94215.06;5094123;28;20066;-47
2020/12/08 00:32:11;;;;;;;30.52;18.33;;;;;;;1.73;75.80;94196.88;5094397;28;20408;-45
2020/12/08 00:34:37;;;;;;;28.00;17.65;;;;;;;1.72;75.21;94200.63;5094213;28;20105;-48
2020/12/08 00:37:05;;;;;;;33.78;18.48;;;;;;;2.02;75.18;94238.03;5093227;28;20075;-47
2020/12/08 00:39:32;;;;;;;33.20;17.85;;;;;;;2.01;74.66;94223.91;5092844;28;20048;-45
2020/12/08 00:42:00;;;;;;;32.88;18.98;;;;;;;1.85;75.72;94228.19;5094072;28;20489;-48
2020/12/08 00:44:27;;;;;;;30.95;18.15;;;;;;;1.95;75.27;94238.53;5059911;28;20052;-44
2020/12/08 00:46:53;;;;;;;34.70;19.20;;;;;;;1.69;75.25;94203.13;5091080;28;20070;-48
2020/12/08 00:49:21;;;;;;;35.13;20.35;;;;;;;1.82;75.58;94213.63;5093358;28;20052;-49
2020/12/08 00:51:48;;;;;;;32.13;18.35;;;;;;;1.64;75.61;94210.22;5092580;28;20059;-45
2020/12/08 00:54:15;;;;;;;32.25;18.08;;;;;;;1.89;75.18;94223.81;5092437;28;20058;-49
2020/12/08 00:56:41;;;;;;;34.08;18.33;;;;;;;1.57;75.93;94212.59;5075027;28;20048;-53
2020/12/08 00:59:13;;;;;;;33.17;18.17;;;;;;;1.85;75.62;94236.19;5092565;28;20413;-46
2020/12/08 01:01:44;;;;;;;31.55;17.38;;;;;;;1.78;75.25;94202.00;5092287;28;20139;-47
2020/12/08 01:04:14;;;;;;;32.78;18.65;;;;;;;2.01;75.42;94221.22;5094215;28;20056;-44
2020/12/08 01:06:42;;;;;;;30.95;18.10;;;;;;;2.01;75.12;94210.56;5093201;28;20052;-50
2020/12/08 01:09:10;;;;;;;31.65;18.65;;;;;;;2.10;74.72;94219.31;5075810;28;20131;-49
2020/12/08 01:11:43;;;;;;;30.65;17.83;;;;;;;2.15;74.47;94214.94;5092254;28;20074;-51
2020/12/08 01:14:14;;;;;;;33.15;18.15;;;;;;;2.05;74.18;94216.06;5075810;28;20071;-47
2020/12/08 01:16:41;;;;;;;33.10;18.25;;;;;;;2.08;74.48;94216.22;5091625;28;20266;-51
2020/12/08 01:19:08;;;;;;;31.02;18.55;;;;;;;1.99;74.61;94218.13;5092003;28;20574;-50
2020/12/08 01:21:35;;;;;;;34.00;18.35;;;;;;;2.16;74.01;94225.28;5091976;28;20117;-48
2020/12/08 01:24:01;;;;;;;31.92;19.08;;;;;;;2.12;74.59;94227.03;5093021;28;20486;-50
2020/12/08 01:26:28;;;;;;;29.98;18.13;;;;;;;2.16;74.39;94217.25;5090974;28;20075;-48
2020/12/08 01:28:59;;;;;;;29.60;17.52;;;;;;;2.05;74.36;94210.72;5091692;28;20097;-47
2020/12/08 01:31:32;;;;;;;28.00;16.27;;;;;;;2.34;73.59;94234.00;5091803;28;20506;-47
2020/12/08 01:34:03;;;;;;;30.00;17.13;;;;;;;2.22;73.42;94215.97;5091586;28;20060;-49
2020/12/08 01:36:29;;;;;;;28.27;16.90;;;;;;;2.22;73.24;94232.00;5091309;28;20157;-49
2020/12/08 01:38:56;;;;;;;29.42;16.70;;;;;;;2.28;73.64;94233.38;5091497;28;20040;-50
2020/12/08 01:41:24;;;;;;;28.45;16.50;;;;;;;1.99;74.12;94230.69;5091220;28;20060;-45
2020/12/08 01:43:54;;;;;;;31.80;17.90;;;;;;;1.74;75.48;94224.31;5091446;28;20044;-48
2020/12/08 01:46:27;;;;;;;27.03;15.97;;;;;;;1.78;75.46;94212.69;5092126;28;20135;-49
2020/12/08 01:48:56;;;;;;;26.40;16.20;;;;;;;1.75;74.60;94199.19;5092342;28;20044;-48
2020/12/08 01:51:24;;;;;;;28.80;16.80;;;;;;;1.78;75.90;94219.91;5091310;28;20493;-46
2020/12/08 01:53:52;;;;;;;27.05;16.00;;;;;;;1.95;75.54;94227.06;5091479;28;20556;-47
2020/12/08 01:56:25;;;;;;;28.20;16.95;;;;;;;1.90;75.00;94220.03;5091078;28;20162;-49
2020/12/08 01:58:58;;;;;;;34.40;17.67;;;;;;;1.84;74.68;94210.63;5091027;28;20516;-47
2020/12/08 02:01:27;;;;;;;34.22;18.05;;;;;;;1.47;76.26;94222.81;5090947;28;20412;-47
2020/12/08 02:03:54;;;;;;;34.22;18.95;;;;;;;0.92;78.11;94206.38;5091490;28;20048;-52
2020/12/08 02:06:21;;;;;;;36.72;20.00;;;;;;;0.89;79.01;94215.00;5090188;28;20058;-44
2020/12/08 02:08:49;;;;;;;35.97;19.10;;;;;;;1.03;78.91;94220.16;5090957;28;20040;-47
2020/12/08 02:11:23;;;;;;;33.72;17.77;;;;;;;1.05;78.43;94223.31;5090859;28;20147;-47
2020/12/08 02:13:50;;;;;;;38.65;18.38;;;;;;;1.20;77.59;94213.25;5091029;28;20075;-48
2020/12/08 02:16:20;;;;;;;37.05;19.10;;;;;;;1.17;77.47;94196.03;5090483;28;20524;-47
2020/12/08 02:18:49;;;;;;;35.10;18.83;;;;;;;1.29;77.32;94222.03;5091183;28;20082;-48
2020/12/08 02:21:16;;;;;;;38.10;19.92;;;;;;;1.20;77.93;94215.91;5090934;28;20135;-49
2020/12/08 02:23:51;;;;;;;36.33;19.02;;;;;;;1.28;77.21;94215.16;5090749;28;20055;-49
2020/12/08 02:26:25;;;;;;;34.45;18.20;;;;;;;1.26;77.23;94201.34;5089920;28;20117;-46
2020/12/08 02:28:53;;;;;;;32.95;18.45;;;;;;;1.49;76.15;94218.69;5090668;28;20071;-47
2020/12/08 02:31:21;;;;;;;33.88;17.85;;;;;;;1.37;76.65;94222.03;5091743;28;20508;-47
2020/12/08 02:33:48;;;;;;;31.98;17.80;;;;;;;1.41;76.79;94214.19;5090851;28;20052;-47
2020/12/08 02:36:15;;;;;;;33.38;17.33;;;;;;;1.39;76.77;94205.72;5089970;28;20048;-46
2020/12/08 02:38:42;;;;;;;34.33;17.63;;;;;;;1.48;75.61;94208.38;5091694;28;20048;-48
2020/12/08 02:41:10;;;;;;;33.08;18.80;;;;;;;1.29;76.19;94196.16;5090371;28;20518;-48
2020/12/08 02:43:37;;;;;;;33.80;16.65;;;;;;;1.32;76.62;94211.53;5091774;28;20476;-47
2020/12/08 02:46:04;;;;;;;37.05;18.50;;;;;;;1.07;76.39;94186.50;5090068;28;20051;-50
2020/12/08 02:48:30;;;;;;;33.88;18.15;;;;;;;0.97;77.72;94205.44;5091518;28;20040;-52
2020/12/08 02:51:03;;;;;;;35.53;18.08;;;;;;;1.06;77.41;94208.09;5090597;28;20068;-46
2020/12/08 02:53:30;;;;;;;35.90;17.92;;;;;;;1.04;77.62;94200.44;5090300;28;20058;-47
2020/12/08 02:55:58;;;;;;;38.15;17.77;;;;;;;0.91;77.68;94204.00;5090849;28;20517;-48
2020/12/08 02:58:27;;;;;;;35.35;18.42;;;;;;;0.83;78.08;94202.16;5090650;28;20436;-51
2020/12/08 03:00:54;;;;;;;32.45;17.30;;;;;;;0.98;77.50;94191.03;5090120;28;20131;-48
2020/12/08 03:03:20;;;;;;;32.85;16.58;;;;;;;1.28;76.36;94199.16;5092013;28;20047;-49
2020/12/08 03:05:47;;;;;;;29.15;16.17;;;;;;;1.36;76.11;94203.69;5090088;28;20051;-48
2020/12/08 03:08:13;;;;;;;29.73;15.38;;;;;;;1.34;75.73;94176.59;5090121;28;20092;-46
2020/12/08 03:10:40;;;;;;;32.78;16.73;;;;;;;1.41;75.72;94182.22;5090726;28;20055;-48
2020/12/08 03:13:06;;;;;;;30.98;16.70;;;;;;;1.46;75.89;94194.56;5094107;28;20051;-46
2020/12/08 03:15:35;;;;;;;29.48;16.30;;;;;;;1.52;75.84;94220.75;5093699;28;20058;-50
2020/12/08 03:18:02;;;;;;;29.20;16.52;;;;;;;1.56;75.65;94194.22;5094078;28;20054;-45
2020/12/08 03:20:30;;;;;;;31.58;17.38;;;;;;;1.68;75.34;94196.25;5077339;28;20052;-49
2020/12/08 03:22:56;;;;;;;32.08;17.95;;;;;;;1.85;75.32;94207.66;5095429;28;20044;-45
2020/12/08 03:25:24;;;;;;;31.27;17.15;;;;;;;1.95;74.79;94200.38;5093226;28;20051;-45
2020/12/08 03:27:52;;;;;;;33.95;18.40;;;;;;;1.81;75.22;94200.59;5093767;28;20044;-50
2020/12/08 03:30:19;;;;;;;30.77;17.23;;;;;;;1.88;75.14;94208.88;5093942;28;20040;-52
2020/12/08 03:32:49;;;;;;;32.05;17.60;;;;;;;1.87;75.15;94200.09;5093758;28;20051;-45
2020/12/08 03:35:19;;;;;;;33.15;17.80;;;;;;;1.70;75.25;94167.41;5094295;28;20124;-46
2020/12/08 03:37:49;;;;;;;32.33;17.10;;;;;;;1.79;75.13;94194.81;5093514;28;20040;-49
2020/12/08 03:40:16;;;;;;;26.48;15.57;;;;;;;1.64;75.08;94191.56;5093698;28;20102;-46
2020/12/08 03:42:42;;;;;;;43.40;16.67;;;;;;;1.67;75.01;94194.69;5093686;28;20051;-46
2020/12/08 03:45:09;;;;;;;32.45;16.80;;;;;;;1.57;75.51;94201.16;5093583;28;20048;-49
2020/12/08 03:48:04;;;;;;;34.97;18.23;;;;;;;1.59;75.44;94181.06;5084522;28;20131;-47
2020/12/08 03:50:37;;;;;;;31.83;17.03;;;;;;;1.49;75.58;94172.63;5093553;28;20052;-47
2020/12/08 03:53:07;;;;;;;29.60;16.75;;;;;;;1.46;75.71;94179.34;5093607;28;20135;-45
2020/12/08 03:55:42;;;;;;;43.55;17.83;;;;;;;1.61;74.83;94180.75;5077486;28;20052;-50
2020/12/08 03:58:10;;;;;;;38.78;17.08;;;;;;;1.30;75.02;94133.00;5093302;28;20048;-47
2020/12/08 04:00:37;;;;;;;40.13;16.60;;;;;;;1.47;75.58;94180.94;5093755;28;20044;-47
2020/12/08 04:03:04;;;;;;;35.55;18.10;;;;;;;1.45;75.78;94179.69;5077640;28;20064;-46
2020/12/08 04:05:36;;;;;;;32.38;15.80;;;;;;;1.49;75.54;94184.06;5094411;28;20500;-46
2020/12/08 04:08:02;;;;;;;30.58;15.07;;;;;;;1.38;75.62;94182.84;5093417;28;20101;-51
2020/12/08 04:10:35;;;;;;;44.20;15.52;;;;;;;1.39;75.08;94166.53;5093846;28;20055;-52
2020/12/08 04:13:02;;;;;;;28.52;15.55;;;;;;;1.57;75.00;94188.59;5093201;28;20040;-47
2020/12/08 04:15:29;;;;;;;31.92;14.23;;;;;;;1.55;74.40;94193.44;5093325;28;20040;-47
2020/12/08 04:17:56;;;;;;;27.30;12.35;;;;;;;1.23;75.37;94181.44;5093036;28;20097;-44
2020/12/08 04:20:23;;;;;;;26.33;14.23;;;;;;;1.41;74.91;94198.19;5092884;28;20131;-52
2020/12/08 04:22:50;;;;;;;23.40;13.20;;;;;;;1.09;75.53;94165.63;5092456;28;20061;-46
2020/12/08 04:25:19;;;;;;;26.08;14.25;;;;;;;1.11;76.12;94189.31;5092224;28;20048;-48
2020/12/08 04:27:46;;;;;;;30.55;14.77;;;;;;;1.12;76.06;94191.66;5092652;28;20051;-49
2020/12/08 04:30:13;;;;;;;33.90;13.55;;;;;;;1.16;75.75;94173.94;5092993;28;20408;-47
2020/12/08 04:32:43;;;;;;;30.00;14.23;;;;;;;1.15;75.50;94185.69;5092989;28;20048;-45
2020/12/08 04:35:10;;;;;;;29.50;14.32;;;;;;;1.06;75.76;94190.25;5094232;28;20105;-44
2020/12/08 04:37:37;;;;;;;32.13;14.05;;;;;;;1.04;75.65;94204.97;5093436;28;20040;-47
2020/12/08 04:40:04;;;;;;;27.42;13.07;;;;;;;0.92;75.96;94201.06;5093957;28;20052;-45
2020/12/08 04:42:30;;;;;;;23.50;12.05;;;;;;;0.77;76.24;94206.06;5094276;28;20052;-48
2020/12/08 04:44:58;;;;;;;21.35;11.80;;;;;;;0.55;76.31;94181.13;5093808;28;20081;-48
2020/12/08 04:47:28;;;;;;;20.33;12.30;;;;;;;0.68;76.33;94201.53;5093319;28;20048;-49
2020/12/08 04:49:56;;;;;;;22.08;12.23;;;;;;;0.84;75.94;94209.81;5093271;28;20059;-52
2020/12/08 04:52:22;;;;;;;22.90;12.27;;;;;;;0.81;75.54;94207.78;5093732;28;20447;-50
2020/12/08 04:54:49;;;;;;;20.23;11.82;;;;;;;0.98;75.03;94222.22;5093547;28;20086;-45
2020/12/08 04:57:15;;;;;;;19.88;11.88;;;;;;;0.91;74.61;94202.16;5092929;28;20044;-49
2020/12/08 04:59:41;;;;;;;18.63;11.18;;;;;;;0.91;74.86;94212.00;5093595;28;20060;-46
2020/12/08 05:02:08;;;;;;;18.80;11.57;;;;;;;0.89;74.24;94199.03;5091890;28;20472;-47
2020/12/08 05:04:34;;;;;;;22.60;12.13;;;;;;;0.81;74.27;94204.31;5093115;28;20076;-48
2020/12/08 05:07:08;;;;;;;21.33;11.80;;;;;;;0.73;74.78;94189.16;5092901;28;20052;-47
2020/12/08 05:09:46;;;;;;;25.63;12.90;;;;;;;0.84;74.31;94201.81;5092329;28;20047;-52
2020/12/08 05:12:19;;;;;;;26.08;13.27;;;;;;;0.81;74.61;94199.78;5093357;28;20123;-45
2020/12/08 05:14:46;;;;;;;29.80;13.45;;;;;;;0.64;74.78;94200.56;5093264;28;20074;-46
2020/12/08 05:17:12;;;;;;;21.95;12.25;;;;;;;0.69;75.35;94192.44;5092365;28;20076;-52
2020/12/08 05:19:38;;;;;;;32.00;14.02;;;;;;;0.72;75.06;94192.91;5093264;28;20102;-47
2020/12/08 05:22:09;;;;;;;28.92;13.73;;;;;;;0.55;75.75;94188.34;5092947;28;20382;-47
2020/12/08 05:24:36;;;;;;;31.08;12.82;;;;;;;0.57;75.82;94192.25;5092945;28;20048;-49
2020/12/08 05:27:04;;;;;;;30.98;14.95;;;;;;;0.41;75.75;94194.56;5092203;28;20070;-48
2020/12/08 05:29:31;;;;;;;24.48;12.98;;;;;;;0.28;76.50;94200.81;5092793;28;20048;-51
2020/12/08 05:32:21;;;;;;;38.95;13.80;;;;;;;0.14;76.71;94198.28;5092936;28;20047;-47
2020/12/08 05:34:51;;;;;;;31.20;13.48;;;;;;;0.10;76.73;94204.50;5092068;28;20048;-49
2020/12/08 05:37:19;;;;;;;27.60;14.27;;;;;;;0.05;77.96;94213.41;5091969;28;20134;-46
2020/12/08 05:39:47;;;;;;;23.77;12.55;;;;;;;0.17;77.40;94224.25;5092778;28;20121;-47
2020/12/08 05:42:18;;;;;;;22.23;12.77;;;;;;;0.25;77.07;94238.66;5091156;28;20048;-47
2020/12/08 05:44:49;;;;;;;21.38;12.10;;;;;;;0.26;77.00;94234.13;5092510;28;20079;-49
2020/12/08 05:47:20;;;;;;;22.13;12.05;;;;;;;0.16;76.75;94236.00;5092490;28;20052;-47
2020/12/08 05:49:59;;;;;;;21.33;12.52;;;;;;;0.04;77.10;94249.06;5094322;28;20054;-45
2020/12/08 05:52:34;;;;;;;20.23;10.88;;;;;;;0.18;75.70;94212.50;5093705;28;20063;-46
2020/12/08 05:55:22;;;;;;;17.10;10.88;;;;;;;0.23;75.50;94231.00;5092622;28;20095;-49
2020/12/08 05:57:50;;;;;;;21.77;11.50;;;;;;;0.14;76.30;94229.41;5092317;28;20079;-49
2020/12/08 06:00:24;;;;;;;26.42;13.30;;;;;;;0.03;76.23;94220.91;5092138;28;20050;-50
2020/12/08 06:02:55;;;;;;;26.90;13.52;;;;;;;-0.41;78.24;94221.81;5092157;28;20579;-49
2020/12/08 06:05:30;;;;;;;23.50;12.52;;;;;;;-0.46;78.60;94228.03;5091662;28;20100;-49
2020/12/08 06:07:58;;;;;;;27.48;13.35;;;;;;;-0.14;77.10;94226.94;5092425;28;20083;-45
2020/12/08 06:10:25;;;;;;;23.23;12.27;;;;;;;-0.24;78.14;94219.22;5091847;28;20101;-46
2020/12/08 06:13:00;;;;;;;23.85;12.63;;;;;;;-0.02;77.42;94234.34;5091997;28;20048;-50
2020/12/08 06:15:47;;;;;;;22.52;12.40;;;;;;;0.04;76.35;94216.38;5091400;28;20067;-47
2020/12/08 06:18:13;;;;;;;21.75;12.93;;;;;;;0.26;76.24;94247.41;5091878;28;20040;-45
2020/12/08 06:20:40;;;;;;;22.45;11.95;;;;;;;0.35;75.98;94250.91;5091626;28;20048;-46
2020/12/08 06:23:06;;;;;;;21.77;12.00;;;;;;;0.35;76.23;94233.06;5091867;28;20056;-48
2020/12/08 06:25:33;;;;;;;19.70;11.95;;;;;;;0.17;76.28;94216.28;5090815;28;20503;-45
2020/12/08 06:28:01;;;;;;;22.15;12.55;;;;;;;0.41;75.98;94231.81;5091396;28;20226;-46
2020/12/08 06:30:28;;;;;;;19.15;11.13;;;;;;;0.40;75.79;94230.25;5091768;28;20048;-46
2020/12/08 06:33:01;;;;;;;20.08;12.30;;;;;;;0.60;75.31;94239.53;5091810;28;20084;-45
2020/12/08 06:35:32;;;;;;;18.10;10.77;;;;;;;0.64;74.55;94232.50;5090801;28;20044;-48
2020/12/08 06:38:13;;;;;;;18.27;10.43;;;;;;;0.31;74.67;94234.00;5091367;28;20042;-46
2020/12/08 06:40:50;;;;;;;16.45;10.23;;;;;;;0.24;75.01;94226.47;5091982;28;20059;-44
2020/12/08 06:43:17;;;;;;;16.02;10.10;;;;;;;0.30;75.50;94229.78;5092032;28;20126;-46
2020/12/08 06:45:43;;;;;;;16.45;9.98;;;;;;;0.34;74.90;94228.84;5091308;28;20052;-45
2020/12/08 06:48:17;;;;;;;15.90;9.98;;;;;;;0.48;74.62;94226.03;5092014;28;20076;-46
2020/12/08 06:50:44;;;;;;;18.23;11.32;;;;;;;0.44;74.31;94233.09;5091758;28;20056;-46
2020/12/08 06:53:10;;;;;;;19.45;11.40;;;;;;;0.41;74.63;94236.38;5092300;28;20484;-46
2020/12/08 06:55:49;;;;;;;20.90;10.85;;;;;;;0.44;74.86;94222.44;5091146;28;20109;-48
2020/12/08 06:58:17;;;;;;;17.80;11.15;;;;;;;0.37;75.04;94235.41;5090505;28;20048;-46
2020/12/08 07:00:47;;;;;;;20.80;12.05;;;;;;;0.47;74.47;94232.47;5091642;28;20105;-48
2020/12/08 07:03:15;;;;;;;19.73;11.32;;;;;;;0.24;74.83;94231.78;5091901;28;20055;-48
2020/12/08 07:05:42;;;;;;;22.42;12.10;;;;;;;0.41;74.60;94241.69;5092077;28;20056;-47
2020/12/08 07:08:13;;;;;;;22.15;12.50;;;;;;;0.51;74.05;94228.09;5091987;28;20048;-49
2020/12/08 07:10:41;;;;;;;25.13;13.10;;;;;;;0.56;74.50;94221.84;5090134;28;20076;-48
2020/12/08 07:13:12;;;;;;;22.88;12.13;;;;;;;0.60;74.78;94228.91;5091549;28;20059;-47
2020/12/08 07:15:40;;;;;;;21.75;13.38;;;;;;;0.61;74.23;94217.16;5090769;28;20056;-48
2020/12/08 07:18:09;;;;;;;23.15;12.70;;;;;;;0.54;74.19;94218.72;5091179;28;20074;-47
2020/12/08 07:20:41;;;;;;;20.77;11.23;;;;;;;0.66;74.23;94221.56;5091513;28;20065;-46
2020/12/08 07:23:12;;;;;;;18.85;11.25;;;;;;;0.67;73.99;94217.78;5091556;28;20492;-48
2020/12/08 07:25:39;;;;;;;18.23;10.65;;;;;;;0.57;73.58;94208.22;5090552;28;20139;-51
2020/12/08 07:28:08;;;;;;;15.73;10.20;;;;;;;0.56;73.51;94208.53;5091302;28;20126;-48
2020/12/08 07:30:34;;;;;;;16.48;10.52;;;;;;;0.52;73.46;94211.03;5091012;28;20052;-47
2020/12/08 07:33:09;;;;;;;19.80;11.73;;;;;;;0.49;74.90;94218.84;5089885;28;20569;-51
2020/12/08 07:35:36;;;;;;;18.77;11.85;;;;;;;0.55;73.84;94215.72;5089093;28;20277;-50
2020/12/08 07:38:04;;;;;;;17.45;11.30;;;;;;;0.33;74.91;94232.59;5091133;28;20051;-50
2020/12/08 07:40:38;;;;;;;17.40;11.48;;;;;;;0.31;74.53;94226.00;5091129;28;20094;-45
2020/12/08 07:43:06;;;;;;;17.90;12.13;;;;;;;0.18;75.31;94227.69;5091371;28;20397;-45
2020/12/08 07:45:41;;;;;;;17.95;12.43;;;;;;;0.19;75.75;94215.94;5072541;28;20463;-51
2020/12/08 07:48:11;;;;;;;17.40;11.30;;;;;;;0.32;75.62;94228.34;5073009;28;20049;-49
2020/12/08 07:50:37;;;;;;;20.73;12.63;;;;;;;0.28;75.94;94237.25;5090973;28;20081;-47
2020/12/08 07:53:06;;;;;;;18.60;11.60;;;;;;;0.50;74.50;94223.88;5089872;28;20132;-51
2020/12/08 07:55:42;;;;;;;19.02;12.50;;;;;;;0.66;73.92;94229.53;5090148;28;20059;-48
2020/12/08 07:58:10;;;;;;;18.55;11.77;;;;;;;0.67;74.59;94228.44;5093860;28;20562;-47
2020/12/08 08:00:37;;;;;;;18.70;12.48;;;;;;;0.61;74.38;94225.13;5094737;28;20048;-47
2020/12/08 08:03:04;;;;;;;20.02;11.68;;;;;;;0.70;74.02;94220.59;5094586;28;20051;-48
2020/12/08 08:05:32;;;;;;;18.75;12.25;;;;;;;0.82;73.56;94225.31;5093699;28;20063;-49
2020/12/08 08:07:59;;;;;;;21.40;12.90;;;;;;;0.88;72.70;94224.09;5094381;28;20097;-48
2020/12/08 08:10:25;;;;;;;19.50;13.20;;;;;;;0.74;73.39;94230.63;5094189;28;20055;-47
2020/12/08 08:12:52;;;;;;;20.58;13.27;;;;;;;0.79;73.56;94230.50;5094522;28;20059;-47
2020/12/08 08:15:18;;;;;;;21.23;13.25;;;;;;;1.01;73.25;94235.69;5093807;28;20151;-49
2020/12/08 08:17:44;;;;;;;21.60;13.75;;;;;;;1.09;73.36;94231.44;5094378;28;20040;-48
2020/12/08 08:20:11;;;;;;;18.95;11.82;;;;;;;0.99;72.71;94218.44;5094407;28;20048;-49
2020/12/08 08:22:38;;;;;;;20.92;13.27;;;;;;;0.89;73.44;94214.22;5092988;28;20052;-49
2020/12/08 08:25:05;;;;;;;20.52;13.05;;;;;;;0.95;73.50;94233.50;5094387;28;20048;-48
2020/12/08 08:27:32;;;;;;;19.35;12.77;;;;;;;0.92;73.89;94229.56;5093469;28;20576;-48
2020/12/08 08:29:59;;;;;;;18.80;12.23;;;;;;;1.00;73.34;94233.31;5094064;28;20143;-45
2020/12/08 08:32:26;;;;;;;21.02;13.07;;;;;;;1.02;73.03;94233.81;5094109;28;20055;-49
2020/12/08 08:34:52;;;;;;;20.35;12.85;;;;;;;1.04;73.42;94232.41;5092907;28;20048;-48
2020/12/08 08:37:19;;;;;;;20.52;13.02;;;;;;;0.98;72.92;94233.66;5093750;28;20095;-50
2020/12/08 08:39:45;;;;;;;25.10;13.82;;;;;;;0.83;73.23;94226.09;5093888;28;20055;-45
2020/12/08 08:42:12;;;;;;;20.52;13.27;;;;;;;0.98;73.19;94244.28;5094626;28;20131;-44
2020/12/08 08:44:38;;;;;;;20.70;13.55;;;;;;;1.02;73.95;94239.91;5094473;28;20135;-48
2020/12/08 08:47:05;;;;;;;21.75;13.90;;;;;;;1.04;74.03;94240.38;5093364;28;20052;-46
2020/12/08 08:49:32;;;;;;;20.33;14.60;;;;;;;1.07;73.57;94241.63;5093583;28;20051;-49
2020/12/08 08:51:59;;;;;;;20.85;13.30;;;;;;;0.71;73.40;94162.81;5093939;28;20106;-53
2020/12/08 08:54:26;;;;;;;21.98;12.52;;;;;;;1.09;73.38;94244.75;5093779;28;20048;-46
2020/12/08 08:56:55;;;;;;;19.08;12.32;;;;;;;1.14;73.43;94248.06;5093147;28;20513;-46
2020/12/08 08:59:22;;;;;;;20.67;12.32;;;;;;;1.21;73.11;94260.13;5094092;28;20073;-44
2020/12/08 09:01:49;;;;;;;20.92;13.40;;;;;;;1.17;72.66;94279.41;5093658;28;20421;-47
2020/12/08 09:04:16;;;;;;;20.55;12.75;;;;;;;0.65;74.64;94257.22;5093817;28;20052;-44
2020/12/08 09:06:42;;;;;;;19.20;12.70;;;;;;;0.69;74.68;94250.22;5093384;28;20520;-49
2020/12/08 09:09:09;;;;;;;18.92;12.05;;;;;;;0.87;73.61;94253.66;5091982;28;20105;-47
2020/12/08 09:11:35;;;;;;;19.88;12.75;;;;;;;0.89;73.69;94240.84;5093204;28;20135;-54
2020/12/08 09:14:02;;;;;;;19.40;11.77;;;;;;;0.74;73.65;94220.00;5092250;28;20055;-49
2020/12/08 09:16:28;;;;;;;17.85;11.90;;;;;;;1.09;71.77;94250.88;5092591;28;20097;-46
2020/12/08 09:18:55;;;;;;;19.10;11.85;;;;;;;1.19;72.59;94252.44;5093120;28;20056;-47
2020/12/08 09:21:22;;;;;;;20.15;12.00;;;;;;;1.16;72.70;94245.84;5092149;28;20080;-47
2020/12/08 09:23:49;;;;;;;18.10;10.88;;;;;;;1.26;71.11;94236.75;5093190;28;20073;-45
2020/12/08 09:26:17;;;;;;;16.65;10.85;;;;;;;1.51;70.81;94251.16;5091231;28;20052;-48
2020/12/08 09:28:44;;;;;;;19.33;13.45;;;;;;;1.46;72.18;94253.19;5092925;28;20101;-46
2020/12/08 09:31:15;;;;;;;17.58;11.63;;;;;;;1.36;72.35;94257.75;5091506;28;20500;-46
2020/12/08 09:33:41;;;;;;;17.98;12.27;;;;;;;1.44;71.92;94264.19;5091548;28;20051;-53
2020/12/08 09:36:08;;;;;;;19.92;12.10;;;;;;;1.49;73.07;94252.56;5092102;28;20472;-49
2020/12/08 09:38:34;;;;;;;17.80;11.38;;;;;;;1.54;71.38;94257.75;5092781;28;20044;-51
2020/12/08 09:41:01;;;;;;;15.68;10.73;;;;;;;1.56;72.48;94263.53;5092637;28;20048;-45
2020/12/08 09:43:27;;;;;;;18.85;12.55;;;;;;;1.74;71.61;94259.75;5092654;28;20127;-45
2020/12/08 09:45:54;;;;;;;18.88;11.68;;;;;;;1.63;71.11;94264.63;5091995;28;20060;-46
2020/12/08 09:48:20;;;;;;;19.10;11.32;;;;;;;1.80;71.05;94255.03;5091278;28;20048;-49
2020/12/08 09:50:51;;;;;;;18.15;11.30;;;;;;;1.83;71.73;94255.19;5092695;28;20498;-51
2020/12/08 09:53:17;;;;;;;15.80;11.07;;;;;;;1.90;71.63;94252.03;5092739;28;20087;-48
2020/12/08 09:55:47;;;;;;;15.25;10.55;;;;;;;1.89;70.91;94245.13;5091902;28;20132;-46
2020/12/08 09:58:13;;;;;;;16.00;10.45;;;;;;;1.82;71.46;94252.81;5092449;28;20505;-52
2020/12/08 10:00:40;;;;;;;16.73;11.30;;;;;;;1.89;71.02;94245.13;5092508;28;20131;-52
2020/12/08 10:03:07;;;;;;;17.73;11.43;;;;;;;1.96;70.22;94233.97;5092180;28;20054;-47
2020/12/08 10:05:33;;;;;;;16.42;10.23;;;;;;;1.90;70.13;94235.25;5091703;28;20044;-51
2020/12/08 10:07:59;;;;;;;14.15;10.05;;;;;;;1.97;70.24;94236.31;5092213;28;20436;-47
2020/12/08 10:10:26;;;;;;;16.42;10.20;;;;;;;2.10;69.52;94229.22;5092686;28;20054;-45
2020/12/08 10:12:52;;;;;;;17.33;10.05;;;;;;;2.18;69.73;94225.75;5091033;28;20054;-46
2020/12/08 10:15:20;;;;;;;17.48;10.15;;;;;;;2.38;68.37;94224.22;5091564;28;20139;-45
2020/12/08 10:17:46;;;;;;;15.15;9.90;;;;;;;2.57;68.25;94216.59;5092235;28;20131;-45
2020/12/08 10:20:13;;;;;;;16.67;10.45;;;;;;;2.52;68.75;94219.44;5091736;28;20131;-50
2020/12/08 10:22:40;;;;;;;15.35;10.10;;;;;;;2.46;68.89;94198.59;5091959;28;20059;-48
2020/12/08 10:25:06;;;;;;;16.02;10.38;;;;;;;2.58;68.38;94210.13;5091798;28;20047;-50
2020/12/08 10:27:32;;;;;;;20.00;10.27;;;;;;;2.71;68.09;94202.22;5091088;28;20055;-46
2020/12/08 10:30:04;;;;;;;16.75;10.30;;;;;;;2.64;68.51;94189.38;5090820;28;20048;-49
2020/12/08 10:32:31;;;;;;;16.75;10.38;;;;;;;2.67;68.23;94196.75;5092003;28;20056;-50
2020/12/08 10:34:58;;;;;;;16.17;10.02;;;;;;;2.49;68.60;94204.06;5092284;28;20398;-51
2020/12/08 10:37:25;;;;;;;17.45;9.75;;;;;;;2.73;68.28;94216.00;5090827;28;20505;-53
2020/12/08 10:39:51;;;;;;;19.05;9.93;;;;;;;2.67;67.50;94199.41;5091663;28;20036;-45
2020/12/08 10:42:17;;;;;;;15.65;10.15;;;;;;;2.63;68.55;94200.38;5090424;28;20454;-51
2020/12/08 10:44:44;;;;;;;15.18;10.07;;;;;;;2.60;68.99;94199.16;5091833;28;20055;-47
2020/12/08 10:47:10;;;;;;;13.27;9.30;;;;;;;2.51;68.22;94201.09;5091529;28;20048;-47
2020/12/08 10:49:37;;;;;;;15.63;10.10;;;;;;;2.71;67.76;94204.88;5092170;28;20047;-44
2020/12/08 10:52:03;;;;;;;14.60;9.80;;;;;;;2.69;68.59;94199.06;5092348;28;20135;-44
2020/12/08 10:54:29;;;;;;;13.15;8.70;;;;;;;2.57;68.08;94192.56;5092027;28;20102;-46
2020/12/08 10:56:56;;;;;;;12.95;8.98;;;;;;;2.76;67.88;94188.66;5091187;28;20139;-45
2020/12/08 10:59:22;;;;;;;16.35;9.23;;;;;;;2.74;67.83;94188.22;5092755;28;20122;-48
2020/12/08 11:02:00;;;;;;;13.40;8.95;;;;;;;2.72;67.30;94195.75;5091836;28;20432;-48
2020/12/08 11:04:28;;;;;;;12.85;8.68;;;;;;;2.64;67.78;94184.03;5091197;28;20139;-45
2020/12/08 11:06:56;;;;;;;15.25;9.50;;;;;;;2.75;68.38;94185.22;5090516;28;20078;-49
2020/12/08 11:09:22;;;;;;;13.13;8.68;;;;;;;2.81;68.49;94183.13;5091355;28;20048;-49
2020/12/08 11:11:49;;;;;;;12.43;8.45;;;;;;;2.75;66.25;94179.09;5091246;28;20074;-49
2020/12/08 11:14:17;;;;;;;12.48;8.73;;;;;;;2.66;66.95;94175.69;5091210;28;20131;-45
2020/12/08 11:16:43;;;;;;;11.90;8.38;;;;;;;2.77;67.44;94187.56;5090780;28;20394;-46
2020/12/08 11:19:10;;;;;;;16.75;8.75;;;;;;;2.94;66.14;94179.41;5091357;28;20123;-46
2020/12/08 11:21:39;;;;;;;15.32;8.18;;;;;;;3.00;66.85;94175.44;5089778;28;20040;-48
2020/12/08 11:24:07;;;;;;;14.55;8.95;;;;;;;2.97;66.36;94176.09;5091386;28;20052;-49
2020/12/08 11:26:35;;;;;;;13.77;8.32;;;;;;;2.84;66.94;94182.47;5090537;28;20394;-48
2020/12/08 11:29:02;;;;;;;14.68;8.65;;;;;;;2.94;66.20;94166.06;5091511;28;20048;-48
2020/12/08 11:31:29;;;;;;;12.57;8.18;;;;;;;2.98;66.19;94148.25;5091415;28;20052;-47